Meteo Giornale » Osservazioni meteo Italia » Grazzanise

ore: 07:55 - Osservazioni Meteo Grazzanise
Lat. 41° 3' N Lon. 14° 4' E Alt. 9 metri s.l.m.

poco_nuvoloso Europe/Rome

14 °C

Poco Nuvoloso

Temp. 24 Ore

11 °C

23 °C

Ovest

11.1 Km/h

Dew point 12 °C

Umidità 87 %

Visibilità  10 Km

Il sole sorge alle ore 05:54

Il sole tramonta alle ore 18:23

Data e Ora Cielo e Fenomeni T °C DP °C Um. % Pres. hPa Vis. km Vento km/h
Oggi h: 07:55 poco_nuvoloso Poco Nuvoloso 14 12 87 1018 10 O 11.1
Oggi h: 06:55 foschia Foschia 13 11 87 1018 4 N 5.5
Oggi h: 05:55 foschia Foschia 13 10 81 1018 4 S/SO 7.4
Oggi h: 04:55 foschia Foschia 12 9 81 1018 4 N 3.7
Oggi h: 03:55 foschia Foschia 11 8 81 1018 4 N 3.7
Oggi h: 03:55 foschia Foschia 12 9 81 1019 5 N 3.7
Oggi h: 01:55 foschia Foschia 12 9 81 1019 5 N 3.7
Oggi h: 00:55 molto_nuvoloso Molto Nuvoloso 12 9 81 1019 6 S 9.3
Ieri h: 23:55 nuvoloso Nuvoloso 12 9 81 1019 6 N 3.7
Ieri h: 22:55 nuvoloso Nuvoloso 12 10 87 1019 6 S/SE 7.4
Ieri h: 21:55 nuvoloso Nuvoloso 12 9 81 1019 6 S 9.3
Ieri h: 20:55 sereno Sereno 14 11 82 1019 6 S/SE 9.3
Ieri h: 19:55 nuvoloso Nuvoloso 14 12 87 1019 6 O/SO 7.4
Ieri h: 18:55 poco_nuvoloso Poco Nuvoloso 15 14 93 1018 8 SO 11.1
Ieri h: 17:55 sereno Sereno 16 15 93 1018 10 O/SO 9.3
Ieri h: 16:55 sereno Sereno 19 17 88 1018 10 O/SO 18.5
Ieri h: 15:55 sereno Sereno 22 14 60 1018 10 O/SO 16.7
Ieri h: 14:55 sereno Sereno 22 13 56 1019 10 O/SO 16.7
Ieri h: 13:55 sereno Sereno 23 12 49 1020 10 O/SO 16.7
Ieri h: 12:55 sereno Sereno 23 15 60 1020 10 O/SO 11.1
Ieri h: 11:55 sereno Sereno 22 16 68 1021 10 N 3.7
Ieri h: 10:55 sereno Sereno 22 14 60 1021 10 N 3.7
Ieri h: 09:55 sereno Sereno 18 15 82 1021 10 N 3.7
Ieri h: 08:55 sereno Sereno 17 13 77 1021 10 E/NE 7.4